Lowell, Ohio
Current Conditions -  °F | °C
As of 11:53 AM on Friday 28 Nov 2014 (Local Time) from KPKB Reporting Station
Overcast Overcast  
Wind Chill: 20°   Ceiling: 3800
Heat Index: 29°   Visibility: 10mi
Dew Point: 15°   Wind: 9mph
Humidity: 56%   Direction: 270°W
Pressure: 30.38"   Gusts: NA
Location:  39.53°N, 81.51°W
Report Text: KPKB 281653Z 27008KT 10SM FEW030 OVC038 M02/M09 A3038 RMK AO2 SLP298 T10171094
Loading
Personal Weather Stations






























Interactive Weather Map New forecast layout! Learn more

10-Day Weather Forecast

Advertisements
Track Severe Weather on mobile